createdAt,value
2022-11-05T00:01:08.184Z,9.07
2022-11-05T00:03:53.696Z,12.55
2022-11-05T00:06:39.140Z,7.22
2022-11-05T00:09:26.807Z,6.20
2022-11-05T00:12:12.072Z,8.48
2022-11-05T00:14:57.040Z,7.13
2022-11-05T00:17:23.803Z,6.88
2022-11-05T00:19:50.384Z,7.32
2022-11-05T00:22:35.285Z,7.00
2022-11-05T00:25:17.373Z,5.25
2022-11-05T00:27:49.606Z,21.48
2022-11-05T00:32:48.687Z,7.93
2022-11-05T00:35:16.503Z,15.25
2022-11-05T00:37:48.745Z,5.38
2022-11-05T00:40:16.601Z,9.50
2022-11-05T00:43:02.239Z,8.77
2022-11-05T00:45:30.478Z,5.25
2022-11-05T00:48:15.581Z,5.45
2022-11-05T00:50:42.473Z,6.43
2022-11-05T00:53:09.408Z,5.57
2022-11-05T00:55:39.347Z,4.30
2022-11-05T00:58:17.630Z,8.60
2022-11-05T01:00:48.692Z,11.20
2022-11-05T01:03:17.203Z,5.32
2022-11-05T01:05:47.349Z,2.08
2022-11-05T01:08:15.815Z,3.70
2022-11-05T01:10:48.739Z,3.72
2022-11-05T01:13:21.446Z,8.48
2022-11-05T01:15:48.570Z,3.65
2022-11-05T01:18:15.237Z,5.03
2022-11-05T01:20:41.932Z,10.27
2022-11-05T01:23:13.217Z,3.20
2022-11-05T01:25:41.768Z,4.75
2022-11-05T01:28:09.721Z,2.78
2022-11-05T01:30:37.665Z,11.00
2022-11-05T01:33:04.543Z,9.52
2022-11-05T01:35:31.248Z,6.80
2022-11-05T01:37:57.936Z,4.13
2022-11-05T01:40:25.894Z,6.57
2022-11-05T01:42:52.569Z,4.72
2022-11-05T01:45:22.670Z,11.55
2022-11-05T01:48:09.860Z,4.32
2022-11-05T01:50:42.440Z,9.90
2022-11-05T01:53:24.093Z,3.75
2022-11-05T01:56:09.556Z,2.75
2022-11-05T01:58:53.177Z,6.55
2022-11-05T02:01:20.248Z,2.83
2022-11-05T02:03:49.376Z,4.72
2022-11-05T02:06:17.503Z,6.47
2022-11-05T02:09:05.485Z,6.57
2022-11-05T02:11:32.256Z,15.18
2022-11-05T02:13:59.277Z,5.00
2022-11-05T02:16:38.063Z,5.03
2022-11-05T02:19:38.689Z,5.72
2022-11-05T02:22:36.184Z,4.32
2022-11-05T02:25:14.648Z,6.00
2022-11-05T02:27:41.172Z,5.00
2022-11-05T02:30:26.376Z,9.07
2022-11-05T02:32:52.914Z,5.60
2022-11-05T02:35:37.038Z,5.85
2022-11-05T02:38:11.517Z,3.90
2022-11-05T02:40:54.112Z,4.25
2022-11-05T02:44:06.895Z,2.42
2022-11-05T02:46:54.292Z,5.05
2022-11-05T02:49:39.542Z,4.90
2022-11-05T02:52:21.568Z,7.07
2022-11-05T02:55:43.425Z,1.20
2022-11-05T02:58:11.450Z,6.13
2022-11-05T03:00:40.987Z,4.07
2022-11-05T03:03:30.199Z,4.95
2022-11-05T03:06:15.364Z,3.88
2022-11-05T03:09:00.349Z,1.80
2022-11-05T03:11:31.053Z,6.63
2022-11-05T03:14:05.953Z,9.77
2022-11-05T03:16:32.484Z,6.45
2022-11-05T03:19:04.012Z,1.75
2022-11-05T03:21:53.854Z,4.85
2022-11-05T03:24:46.595Z,5.88
2022-11-05T03:27:20.557Z,2.30
2022-11-05T03:29:51.428Z,2.72
2022-11-05T03:32:22.498Z,2.45
2022-11-05T03:34:56.887Z,1.55
2022-11-05T03:37:27.903Z,2.10
2022-11-05T03:40:00.409Z,4.80
2022-11-05T03:42:32.763Z,2.55
2022-11-05T03:47:35.382Z,6.60
2022-11-05T03:50:14.418Z,2.33
2022-11-05T03:52:48.195Z,2.83
2022-11-05T03:55:15.512Z,3.38
2022-11-05T03:57:47.252Z,5.55
2022-11-05T04:00:14.692Z,3.55
2022-11-05T04:02:41.895Z,7.18
2022-11-05T04:05:08.708Z,4.85
2022-11-05T04:07:53.877Z,5.07
2022-11-05T04:10:39.152Z,6.80
2022-11-05T04:13:24.175Z,5.95
2022-11-05T04:16:10.789Z,7.10
2022-11-05T04:18:37.960Z,3.97
2022-11-05T04:21:24.306Z,6.03
2022-11-05T04:24:09.272Z,5.25
2022-11-05T04:26:41.512Z,5.47
2022-11-05T04:29:26.795Z,6.88
2022-11-05T04:31:53.439Z,2.90
2022-11-05T04:34:22.113Z,6.70
2022-11-05T04:36:50.529Z,3.33
2022-11-05T04:39:20.857Z,2.67
2022-11-05T04:41:50.582Z,9.90
2022-11-05T04:44:17.297Z,1.58
2022-11-05T04:46:44.095Z,7.47
2022-11-05T04:49:10.777Z,1.10
2022-11-05T04:51:37.399Z,2.88
2022-11-05T04:54:04.223Z,4.07
2022-11-05T04:56:30.871Z,3.15
2022-11-05T04:58:57.557Z,5.72
2022-11-05T05:01:25.462Z,1.98
2022-11-05T05:03:53.961Z,8.70
2022-11-05T05:06:21.637Z,3.92
2022-11-05T05:08:49.665Z,1.20
2022-11-05T05:11:18.938Z,5.75
2022-11-05T05:13:45.655Z,4.18
2022-11-05T05:16:24.007Z,1.58
2022-11-05T05:18:51.172Z,3.97
2022-11-05T05:21:38.037Z,2.97
2022-11-05T05:24:08.885Z,3.67
2022-11-05T05:26:37.277Z,8.38
2022-11-05T05:29:04.220Z,2.33
2022-11-05T05:31:31.188Z,4.95
2022-11-05T05:33:57.992Z,3.50
2022-11-05T05:36:24.644Z,2.78
2022-11-05T05:38:51.364Z,5.45
2022-11-05T05:41:18.204Z,1.70
2022-11-05T05:43:45.224Z,2.38
2022-11-05T05:46:14.104Z,1.20
2022-11-05T05:48:41.457Z,1.13
2022-11-05T05:51:10.832Z,4.10
2022-11-05T05:53:38.680Z,2.08
2022-11-05T05:56:06.079Z,1.25
2022-11-05T05:58:39.342Z,1.80
2022-11-05T06:01:17.271Z,0.60
2022-11-05T06:03:45.512Z,4.35
2022-11-05T06:06:13.601Z,3.70
2022-11-05T06:08:41.107Z,1.17
2022-11-05T06:11:08.487Z,2.17
2022-11-05T06:13:36.072Z,0.40
2022-11-05T06:16:08.291Z,0.20
2022-11-05T06:18:35.791Z,0.32
2022-11-05T06:21:04.101Z,3.83
2022-11-05T06:23:35.087Z,0.00
2022-11-05T06:26:06.827Z,0.05
2022-11-05T06:28:33.696Z,0.08
2022-11-05T06:31:00.508Z,0.20
2022-11-05T06:33:27.191Z,0.70
2022-11-05T06:35:54.517Z,0.20
2022-11-05T06:38:21.224Z,2.40
2022-11-05T06:40:47.801Z,0.00
2022-11-05T06:43:14.659Z,0.30
2022-11-05T06:45:41.798Z,0.15
2022-11-05T06:48:08.545Z,0.15
2022-11-05T06:50:35.248Z,0.43
2022-11-05T06:53:03.849Z,0.08
2022-11-05T06:55:31.771Z,0.73
2022-11-05T06:57:58.470Z,1.13
2022-11-05T07:00:26.883Z,0.00
2022-11-05T07:02:55.849Z,0.00
2022-11-05T07:05:23.425Z,0.75
2022-11-05T07:07:50.120Z,0.28
2022-11-05T07:10:18.619Z,0.00
2022-11-05T07:12:45.211Z,0.30
2022-11-05T07:15:12.616Z,0.13
2022-11-05T07:17:40.307Z,0.32
2022-11-05T07:20:08.336Z,0.30
2022-11-05T07:22:35.874Z,0.00
2022-11-05T07:25:03.146Z,0.20
2022-11-05T07:27:29.795Z,0.00
2022-11-05T07:29:56.381Z,0.00
2022-11-05T07:32:23.018Z,0.00
2022-11-05T07:34:49.682Z,1.40
2022-11-05T07:37:18.858Z,0.75
2022-11-05T07:39:45.512Z,0.00
2022-11-05T07:42:13.756Z,0.00
2022-11-05T07:44:40.779Z,0.25
2022-11-05T07:47:07.592Z,0.05
2022-11-05T07:49:34.181Z,0.65
2022-11-05T07:52:00.828Z,0.00
2022-11-05T07:54:27.671Z,0.10
2022-11-05T07:56:54.303Z,0.32
2022-11-05T07:59:20.934Z,1.55
2022-11-05T08:01:47.753Z,0.25
2022-11-05T08:04:14.586Z,0.10
2022-11-05T08:06:41.200Z,0.10
2022-11-05T08:09:07.977Z,0.00
2022-11-05T08:11:35.925Z,0.10
2022-11-05T08:14:02.647Z,1.95
2022-11-05T08:16:29.301Z,0.00
2022-11-05T08:18:55.931Z,0.05
2022-11-05T08:21:22.570Z,0.00
2022-11-05T08:23:49.192Z,0.95
2022-11-05T08:26:15.815Z,0.00
2022-11-05T08:28:42.515Z,0.10
2022-11-05T08:31:09.143Z,0.00
2022-11-05T08:33:35.767Z,1.33
2022-11-05T08:36:04.198Z,0.32
2022-11-05T08:38:30.970Z,0.63
2022-11-05T08:40:58.408Z,0.10
2022-11-05T08:43:25.324Z,0.20
2022-11-05T08:45:52.156Z,0.35
2022-11-05T08:48:19.635Z,0.30
2022-11-05T08:50:48.428Z,0.10
2022-11-05T08:53:16.123Z,0.00
2022-11-05T08:55:44.022Z,0.43
2022-11-05T08:58:15.191Z,0.20
2022-11-05T09:00:43.234Z,0.80
2022-11-05T09:03:10.786Z,0.43
2022-11-05T09:05:39.528Z,1.45
2022-11-05T09:08:08.266Z,0.47
2022-11-05T09:10:35.448Z,0.10
2022-11-05T09:13:02.704Z,0.25
2022-11-05T09:15:30.671Z,1.50
2022-11-05T09:17:57.769Z,0.30
2022-11-05T09:20:24.519Z,0.73
2022-11-05T09:22:51.655Z,1.88
2022-11-05T09:25:18.346Z,0.43
2022-11-05T09:27:45.034Z,0.43
2022-11-05T09:30:13.491Z,0.73
2022-11-05T09:32:40.662Z,0.57
2022-11-05T09:35:08.076Z,0.20
2022-11-05T09:37:35.716Z,0.20
2022-11-05T09:40:02.467Z,1.30
2022-11-05T09:42:43.270Z,0.77
2022-11-05T09:45:19.090Z,0.20
2022-11-05T09:48:01.256Z,0.47
2022-11-05T09:53:04.588Z,1.35
2022-11-05T09:55:38.703Z,0.00
2022-11-05T09:58:14.291Z,0.35
2022-11-05T10:00:41.929Z,0.10
2022-11-05T10:03:14.521Z,1.77
2022-11-05T10:05:41.591Z,4.78
2022-11-05T10:08:17.571Z,2.33
2022-11-05T10:11:01.513Z,13.43
2022-11-05T10:13:42.359Z,11.27
2022-11-05T10:16:31.472Z,10.85
2022-11-05T10:19:13.221Z,14.77
2022-11-05T10:24:28.337Z,9.05
2022-11-05T10:26:56.344Z,17.40
2022-11-05T10:29:29.439Z,18.98
2022-11-05T10:32:03.268Z,20.70
2022-11-05T10:34:33.494Z,29.33
2022-11-05T10:37:00.941Z,12.77
2022-11-05T10:39:29.499Z,30.00
2022-11-05T10:42:06.232Z,13.63
2022-11-05T10:44:56.729Z,17.08
2022-11-05T10:47:23.247Z,22.73
2022-11-05T10:50:09.724Z,11.98
2022-11-05T10:52:56.878Z,21.40
2022-11-05T10:55:34.483Z,17.63
2022-11-05T10:58:35.311Z,26.48
2022-11-05T11:01:06.290Z,21.95
2022-11-05T11:03:38.926Z,23.75
2022-11-05T11:06:34.540Z,24.08
2022-11-05T11:09:06.394Z,28.00
2022-11-05T11:11:39.192Z,21.80
2022-11-05T11:14:11.740Z,27.85
2022-11-05T11:16:46.921Z,29.23
2022-11-05T11:19:30.487Z,19.30
2022-11-05T11:22:02.948Z,33.88
2022-11-05T11:24:33.549Z,21.58
2022-11-05T11:27:33.598Z,24.02
2022-11-05T11:30:02.477Z,19.17
2022-11-05T11:32:36.279Z,27.90
2022-11-05T11:35:04.529Z,21.83
2022-11-05T11:37:42.539Z,26.75
2022-11-05T11:40:17.530Z,22.50
2022-11-05T11:42:47.501Z,20.10
2022-11-05T11:45:32.901Z,23.75
2022-11-05T11:48:04.128Z,16.08
2022-11-05T11:50:35.875Z,20.00
2022-11-05T11:53:23.976Z,26.98
2022-11-05T11:55:59.878Z,23.45
2022-11-05T11:58:45.113Z,19.35
2022-11-05T12:01:23.951Z,24.20
2022-11-05T12:04:08.590Z,25.13
2022-11-05T12:07:04.939Z,19.80
2022-11-05T12:10:00.224Z,23.48
2022-11-05T12:12:49.593Z,27.05
2022-11-05T12:15:19.052Z,22.08
2022-11-05T12:18:04.725Z,31.63
2022-11-05T12:20:48.652Z,20.23
2022-11-05T12:23:43.213Z,24.40
2022-11-05T12:26:48.927Z,22.50
2022-11-05T12:29:35.934Z,20.77
2022-11-05T12:32:24.534Z,21.60
2022-11-05T12:35:18.262Z,12.77
2022-11-05T12:38:03.264Z,15.57
2022-11-05T12:41:00.783Z,23.05
2022-11-05T12:43:45.457Z,14.50
2022-11-05T12:46:53.256Z,33.63
2022-11-05T12:49:55.340Z,15.85
2022-11-05T12:52:30.667Z,17.17
2022-11-05T12:55:18.287Z,19.40
2022-11-05T12:57:49.688Z,19.35
2022-11-05T13:00:18.790Z,19.02
2022-11-05T13:02:49.764Z,16.25
2022-11-05T13:05:35.817Z,22.90
2022-11-05T13:08:12.181Z,27.40
2022-11-05T13:10:46.339Z,18.65
2022-11-05T13:13:23.252Z,15.02
2022-11-05T13:15:54.520Z,14.18
2022-11-05T13:18:31.893Z,21.65
2022-11-05T13:21:02.176Z,15.35
2022-11-05T13:23:46.188Z,14.05
2022-11-05T13:26:33.162Z,22.10
2022-11-05T13:29:30.035Z,13.18
2022-11-05T13:32:26.848Z,17.45
2022-11-05T13:34:58.464Z,17.08
2022-11-05T13:37:47.400Z,13.85
2022-11-05T13:40:18.208Z,22.55
2022-11-05T13:43:18.035Z,13.75
2022-11-05T13:46:06.429Z,11.27
2022-11-05T13:48:51.980Z,22.30
2022-11-05T13:51:39.300Z,17.85
2022-11-05T13:54:09.160Z,41.90
2022-11-05T13:56:56.921Z,20.80
2022-11-05T14:00:00.721Z,18.92
2022-11-05T14:02:36.959Z,23.17
2022-11-05T14:05:06.109Z,24.60
2022-11-05T14:07:36.909Z,14.30
2022-11-05T14:10:06.543Z,21.63
2022-11-05T14:12:40.687Z,19.17
2022-11-05T14:15:20.237Z,20.45
2022-11-05T14:18:00.538Z,18.33
2022-11-05T14:20:32.987Z,12.00
2022-11-05T14:23:17.743Z,21.17
2022-11-05T14:25:44.440Z,14.00
2022-11-05T14:28:36.213Z,19.67
2022-11-05T14:31:05.265Z,20.77
2022-11-05T14:33:38.003Z,20.52
2022-11-05T14:36:37.599Z,15.05
2022-11-05T14:39:16.101Z,18.75
2022-11-05T14:42:14.764Z,15.50
2022-11-05T14:44:59.829Z,17.60
2022-11-05T14:47:40.765Z,14.48
2022-11-05T14:50:12.013Z,13.68
2022-11-05T14:52:41.132Z,55.73
2022-11-05T14:55:29.141Z,17.50
2022-11-05T14:57:55.766Z,21.27
2022-11-05T15:00:28.326Z,20.95
2022-11-05T15:03:27.104Z,11.02
2022-11-05T15:06:21.912Z,11.43
2022-11-05T15:08:48.591Z,14.25
2022-11-05T15:11:29.196Z,13.95
2022-11-05T15:13:55.744Z,13.43
2022-11-05T15:16:44.277Z,16.65
2022-11-05T15:19:31.627Z,18.88
2022-11-05T15:22:02.105Z,13.50
2022-11-05T15:24:29.529Z,18.58
2022-11-05T15:27:17.867Z,16.38
2022-11-05T15:29:44.466Z,22.92
2022-11-05T15:32:17.411Z,13.07
2022-11-05T15:34:55.010Z,13.77
2022-11-05T15:37:27.781Z,17.67
2022-11-05T15:39:55.443Z,12.80
2022-11-05T15:42:26.736Z,16.85
2022-11-05T15:44:55.593Z,16.13
2022-11-05T15:47:34.249Z,17.33
2022-11-05T15:50:09.997Z,16.38
2022-11-05T15:52:48.740Z,14.82
2022-11-05T15:55:23.801Z,12.73
2022-11-05T15:57:52.128Z,15.75
2022-11-05T16:00:25.530Z,15.68
2022-11-05T16:02:52.254Z,19.27
2022-11-05T16:05:19.173Z,13.38
2022-11-05T16:07:47.569Z,15.85
2022-11-05T16:10:24.297Z,10.82
2022-11-05T16:12:51.172Z,10.68
2022-11-05T16:15:32.243Z,10.43
2022-11-05T16:17:59.973Z,14.55
2022-11-05T16:20:38.467Z,17.38
2022-11-05T16:23:07.526Z,18.70
2022-11-05T16:25:39.901Z,18.10
2022-11-05T16:28:24.643Z,27.00
2022-11-05T16:30:52.385Z,18.42
2022-11-05T16:33:19.181Z,17.10
2022-11-05T16:35:49.975Z,20.23
2022-11-05T16:38:17.846Z,15.00
2022-11-05T16:40:44.502Z,13.45
2022-11-05T16:43:21.087Z,16.05
2022-11-05T16:45:48.341Z,18.30
2022-11-05T16:48:16.489Z,18.23
2022-11-05T16:50:43.863Z,20.23
2022-11-05T16:53:10.662Z,19.38
2022-11-05T16:55:39.498Z,29.58
2022-11-05T16:58:18.631Z,20.00
2022-11-05T17:00:45.554Z,18.65
2022-11-05T17:03:12.216Z,14.48
2022-11-05T17:05:38.857Z,20.75
2022-11-05T17:08:05.605Z,25.35
2022-11-05T17:10:32.204Z,21.52
2022-11-05T17:12:58.827Z,30.75
2022-11-05T17:15:29.592Z,25.27
2022-11-05T17:17:56.551Z,24.13
2022-11-05T17:20:41.028Z,18.67
2022-11-05T17:23:13.178Z,25.90
2022-11-05T17:25:42.097Z,23.70
2022-11-05T17:28:10.068Z,20.80
2022-11-05T17:30:40.341Z,34.65
2022-11-05T17:33:09.184Z,25.17
2022-11-05T17:35:38.702Z,26.33
2022-11-05T17:38:05.511Z,27.95
2022-11-05T17:40:34.672Z,35.47
2022-11-05T17:43:01.612Z,29.38
2022-11-05T17:45:28.419Z,33.85
2022-11-05T17:47:55.286Z,38.95
2022-11-05T17:50:21.924Z,26.08
2022-11-05T17:52:48.684Z,20.75
2022-11-05T17:55:17.880Z,23.48
2022-11-05T17:57:49.000Z,30.45
2022-11-05T18:00:19.109Z,28.75
2022-11-05T18:02:47.295Z,27.77
2022-11-05T18:05:14.527Z,25.60
2022-11-05T18:07:41.771Z,24.73
2022-11-05T18:10:09.165Z,27.42
2022-11-05T18:12:35.939Z,25.95
2022-11-05T18:15:02.691Z,23.02
2022-11-05T18:17:29.801Z,19.83
2022-11-05T18:19:56.426Z,22.50
2022-11-05T18:22:23.185Z,20.75
2022-11-05T18:24:50.135Z,27.70
2022-11-05T18:27:16.733Z,39.97
2022-11-05T18:29:43.443Z,28.48
2022-11-05T18:32:12.240Z,27.33
2022-11-05T18:34:38.973Z,27.45
2022-11-05T18:37:05.647Z,23.77
2022-11-05T18:39:32.257Z,31.98
2022-11-05T18:41:58.872Z,28.42
2022-11-05T18:44:25.667Z,29.85
2022-11-05T18:46:58.051Z,24.77
2022-11-05T18:49:25.849Z,39.30
2022-11-05T18:51:52.541Z,30.80
2022-11-05T18:54:19.498Z,31.70
2022-11-05T18:56:46.600Z,20.42
2022-11-05T19:02:04.264Z,36.08
2022-11-05T19:04:31.017Z,34.05
2022-11-05T19:07:03.114Z,32.55
2022-11-05T19:09:31.320Z,34.00
2022-11-05T19:11:58.020Z,34.80
2022-11-05T19:14:24.631Z,33.42
2022-11-05T19:16:51.289Z,28.17
2022-11-05T19:19:18.026Z,34.03
2022-11-05T19:21:44.611Z,32.90
2022-11-05T19:24:16.735Z,32.55
2022-11-05T19:26:44.254Z,29.55
2022-11-05T19:29:11.661Z,36.47
2022-11-05T19:31:38.596Z,28.95
2022-11-05T19:34:05.669Z,25.85
2022-11-05T19:36:33.623Z,26.42
2022-11-05T19:39:07.370Z,29.13
2022-11-05T19:41:34.209Z,29.73
2022-11-05T19:44:01.943Z,28.08
2022-11-05T19:46:30.145Z,25.90
2022-11-05T19:48:57.220Z,29.05
2022-11-05T19:51:26.458Z,37.75
2022-11-05T19:53:55.196Z,30.23
2022-11-05T19:56:26.737Z,31.83
2022-11-05T19:58:54.009Z,46.33
2022-11-05T20:01:22.543Z,32.50
2022-11-05T20:03:49.879Z,34.95
2022-11-05T20:06:19.570Z,33.72
2022-11-05T20:09:19.822Z,32.33
2022-11-05T20:11:35.903Z,45.15
2022-11-05T20:14:03.429Z,41.60
2022-11-05T20:16:36.875Z,18.85
2022-11-05T20:19:06.549Z,24.55
2022-11-05T20:21:33.714Z,21.73
2022-11-05T20:24:00.556Z,14.63
2022-11-05T20:26:27.592Z,17.70
2022-11-05T20:28:54.550Z,30.92
2022-11-05T20:31:21.500Z,42.28
2022-11-05T20:33:48.502Z,50.58
2022-11-05T20:36:22.166Z,45.85
2022-11-05T20:38:55.246Z,41.95
2022-11-05T20:41:22.427Z,28.85
2022-11-05T20:43:49.066Z,34.22
2022-11-05T20:46:18.827Z,30.95
2022-11-05T20:48:46.079Z,34.95
2022-11-05T20:51:16.096Z,28.00
2022-11-05T20:53:43.798Z,20.23
2022-11-05T20:56:23.072Z,14.85
2022-11-05T20:58:50.485Z,15.38
2022-11-05T21:01:18.636Z,13.32
2022-11-05T21:03:46.889Z,14.55
2022-11-05T21:06:13.949Z,14.35
2022-11-05T21:08:40.667Z,15.80
2022-11-05T21:11:07.807Z,15.32
2022-11-05T21:13:34.780Z,17.70
2022-11-05T21:16:02.905Z,14.18
2022-11-05T21:18:31.765Z,9.40
2022-11-05T21:21:00.442Z,13.60
2022-11-05T21:23:28.552Z,16.05
2022-11-05T21:25:55.618Z,12.88
2022-11-05T21:28:23.116Z,13.30
2022-11-05T21:30:49.890Z,17.13
2022-11-05T21:33:18.101Z,12.75
2022-11-05T21:35:48.166Z,14.57
2022-11-05T21:38:17.077Z,11.35
2022-11-05T21:40:44.775Z,16.48
2022-11-05T21:43:11.981Z,17.70
2022-11-05T21:45:44.169Z,21.13
2022-11-05T21:50:57.648Z,14.90
2022-11-05T21:53:43.305Z,11.35
2022-11-05T21:56:45.551Z,15.45
2022-11-05T21:59:33.957Z,7.68
2022-11-05T22:02:03.604Z,13.23
2022-11-05T22:04:32.756Z,16.38
2022-11-05T22:06:59.793Z,17.42
2022-11-05T22:09:27.333Z,12.90
2022-11-05T22:11:54.512Z,14.85
2022-11-05T22:14:21.735Z,8.07
2022-11-05T22:16:49.001Z,9.27
2022-11-05T22:19:16.161Z,13.98
2022-11-05T22:21:42.899Z,14.15
2022-11-05T22:24:09.979Z,20.10
2022-11-05T22:26:38.180Z,19.52
2022-11-05T22:29:06.396Z,15.45
2022-11-05T22:31:36.233Z,15.10
2022-11-05T22:34:04.809Z,11.18
2022-11-05T22:36:32.573Z,13.75
2022-11-05T22:38:59.341Z,44.58
2022-11-05T22:41:26.165Z,11.77
2022-11-05T22:43:52.799Z,18.70
2022-11-05T22:46:22.621Z,12.80
2022-11-05T22:48:49.791Z,19.67
2022-11-05T22:51:28.077Z,15.63
2022-11-05T22:53:56.760Z,16.08
2022-11-05T22:56:25.944Z,20.98
2022-11-05T22:58:52.851Z,19.90
2022-11-05T23:01:21.517Z,10.82
2022-11-05T23:03:49.985Z,11.77
2022-11-05T23:06:41.553Z,17.85
2022-11-05T23:09:39.002Z,11.52
2022-11-05T23:12:08.552Z,16.05
2022-11-05T23:14:36.660Z,16.15
2022-11-05T23:17:22.058Z,14.18
2022-11-05T23:20:07.299Z,19.92
2022-11-05T23:22:52.451Z,15.40
2022-11-05T23:25:21.650Z,15.93
2022-11-05T23:27:50.484Z,9.93
2022-11-05T23:30:23.452Z,14.35
2022-11-05T23:32:51.210Z,18.10
2022-11-05T23:35:39.468Z,21.20
2022-11-05T23:38:25.025Z,15.23
2022-11-05T23:41:10.690Z,18.00
2022-11-05T23:43:55.654Z,21.88
2022-11-05T23:46:40.990Z,10.30
2022-11-05T23:49:07.886Z,13.80
2022-11-05T23:51:34.828Z,21.02
2022-11-05T23:54:01.491Z,16.10
2022-11-05T23:56:28.206Z,19.10
2022-11-05T23:58:54.834Z,13.13
